Colorado Springs, CO (80919)

6:46 PM MDT on August 20, 2014 (GMT -0600)
At the Orton-Urbina's | Change Station
CLOSE
Current Station
Personal Weather Station
Location: Colorado Springs, CO
Elevation: 6700 ft
Nearby Weather Stations

Elev 6700 ft 38.93 °N, 104.85 °W | Updated 1 minute ago

Clear
Clear
72.3 °F
Feels Like 77 °F
N
5.1
Wind Variable Wind from WNW
Gusts 6.0 mph

Today
High -- | Low -- °F
--% Chance of Precip.
Yesterday
High -- | Low -- °F
Precip. -- in
6:17 AM 7:47 PM
Waning Crescent, 18% visible
Pressure 29.75 in
Visibility 10.0 miles
Clouds Clear
Heat Index 77 °F
Dew Point 52 °F
Humidity 49%
Rainfall -999.00 in
Snow Depth Not available.
UV 2 out of 12
Pollen 9.70 out of 12
Ozone Good
PM2.5 Good
Flu Activity Not available.
METAR KAFF 202358Z AUTO 04008KT 10SM CLR 25/10 A3002 RMK AO2 SLP073 60000 T02490104 10269 20226 55003

More Conditions Fewer Conditions

Pressure 29.75 in
Visibility 10.0 miles
Clouds Clear
Heat Index 77 °F
Dew Point 52 °F
Humidity 49%
Rainfall -999.00 in
Snow Depth Not available.
UV 2 out of 12
Pollen 9.70 out of 12
Ozone Good
PM2.5 Good
Flu Activity Not available.
METAR KAFF 202358Z AUTO 04008KT 10SM CLR 25/10 A3002 RMK AO2 SLP073 60000 T02490104 10269 20226 55003

More Conditions Fewer Conditions

10-Day Weather Forecast

Almanac

Astronomy

Aug. 20, 2014 Rise Set
Actual Time 6:17 AM MDT 7:47 PM MDT
Civil Twilight 5:49 AM MDT 8:15 PM MDT
Nautical Twilight 5:15 AM MDT 8:48 PM MDT
Astronomical Twilight 4:39 AM MDT 9:24 PM MDT
Moon 2:00 AM MDT (8/20) 4:33 PM MDT (8/20)
Length of Visible Light 14h 25m
Length of Day
13h 29m
Tomorrow will be 2m 18s shorter.
Waning Crescent, 18% of the Moon is Illuminated
Today
Waning Crescent
Aug 25
New
Sep 2
First Quarter
Sep 8
Full
Sep 15
Last Quarter

Today's Extremes

State Highs State Lows

Community

WunderPhotos

Upload Photos

1,745,823 photos uploaded!

WunderBlogs® & News

Nearby

Air Quality

  Air Quality AQ Index Pollutant
Yesterday Good
OZONE
Yesterday Good
PM2.5
Current Good
OZONE
Current Good
PM2.5
Wednesday Good
PM2.5
Wednesday Good
OZONE
Thursday Good
PM2.5
Thursday Good
OZONE

Snow Depth

Station Depth Elevation
Rough And Tumble 0 in 10360 ft
Fremont Pass 177 in 11400 ft
Middle Fork Camp 0 in 9000 ft
Summit Ranch 0 in 9400 ft
Ivanhoe 0 in 10400 ft

Earthquake Activity

City Distance Mag. Time & Date
No recent earthquake activity has been reported nearby.
Minimum magnitude displayed is 2.5.

Coastal Water Temperatures

Place Temperature
No Stations Reporting

Nearby Weather Stations